Arlington, Minnesota
Current Conditions -  °F | °C
As of 6:13 PM on Saturday 22 Nov 2014 (Local Time) from KGYL Reporting Station
Haze Haze  
Wind Chill: 32°   Ceiling: 300
Heat Index: 36°   Visibility: 2mi
Dew Point: 36°   Wind: 6mph
Humidity: 99%   Direction: 140°SE
Pressure: 29.58"   Gusts: NA
Location:  44.61°N, 94.08°W
Report Text: KGYL 230013Z AUTO 14005KT 2SM BR OVC003 02/02 A2958 RMK AO2 T00240022
Loading
Personal Weather Stations






























Interactive Weather Map New forecast layout! Learn more

10-Day Weather Forecast

Advertisements
Track Severe Weather on mobile